createdAt,value
2022-10-08T00:02:23.334Z,10.76
2022-10-08T00:04:57.113Z,10.77
2022-10-08T00:07:29.323Z,10.73
2022-10-08T00:10:01.653Z,10.72
2022-10-08T00:12:33.554Z,10.69
2022-10-08T00:15:06.271Z,10.67
2022-10-08T00:17:42.993Z,10.66
2022-10-08T00:20:17.451Z,10.65
2022-10-08T00:22:50.187Z,10.62
2022-10-08T00:25:22.546Z,10.58
2022-10-08T00:28:00.816Z,10.50
2022-10-08T00:30:32.911Z,10.41
2022-10-08T00:33:05.274Z,10.40
2022-10-08T00:35:42.933Z,10.38
2022-10-08T00:38:17.221Z,10.35
2022-10-08T00:40:51.664Z,10.34
2022-10-08T00:43:44.204Z,10.27
2022-10-08T00:46:25.655Z,10.25
2022-10-08T00:49:03.440Z,10.22
2022-10-08T00:51:38.903Z,10.18
2022-10-08T00:54:11.001Z,10.17
2022-10-08T00:56:43.881Z,10.15
2022-10-08T00:59:20.051Z,10.13
2022-10-08T01:01:53.779Z,10.12
2022-10-08T01:04:26.752Z,10.13
2022-10-08T01:07:07.043Z,10.13
2022-10-08T01:09:43.951Z,10.14
2022-10-08T01:12:30.263Z,10.14
2022-10-08T01:15:06.945Z,10.09
2022-10-08T01:17:44.702Z,10.07
2022-10-08T01:20:44.414Z,10.04
2022-10-08T01:23:49.525Z,10.01
2022-10-08T01:26:42.682Z,9.99
2022-10-08T01:29:21.701Z,9.94
2022-10-08T01:31:59.808Z,9.91
2022-10-08T01:34:38.614Z,9.87
2022-10-08T01:37:17.135Z,9.84
2022-10-08T01:39:50.966Z,9.83
2022-10-08T01:42:27.293Z,9.80
2022-10-08T01:45:02.045Z,9.80
2022-10-08T01:47:35.695Z,9.77
2022-10-08T01:50:13.109Z,9.75
2022-10-08T01:52:49.711Z,9.67
2022-10-08T01:55:26.764Z,9.67
2022-10-08T01:58:03.623Z,9.65
2022-10-08T02:00:37.291Z,9.64
2022-10-08T02:03:11.483Z,9.63
2022-10-08T02:05:50.714Z,9.63
2022-10-08T02:08:23.022Z,9.64
2022-10-08T02:10:55.583Z,9.65
2022-10-08T02:13:27.984Z,9.66
2022-10-08T02:16:08.528Z,9.65
2022-10-08T02:18:46.763Z,9.63
2022-10-08T02:21:25.473Z,9.59
2022-10-08T02:24:06.454Z,9.55
2022-10-08T02:26:42.638Z,9.51
2022-10-08T02:29:22.045Z,9.48
2022-10-08T02:31:58.809Z,9.45
2022-10-08T02:34:38.142Z,9.42
2022-10-08T02:37:15.883Z,9.39
2022-10-08T02:39:52.775Z,9.35
2022-10-08T02:42:29.021Z,9.34
2022-10-08T02:45:07.773Z,9.35
2022-10-08T02:47:43.758Z,9.36
2022-10-08T02:50:20.353Z,9.35
2022-10-08T02:52:54.156Z,9.33
2022-10-08T02:55:41.476Z,9.30
2022-10-08T02:58:15.103Z,9.29
2022-10-08T03:00:54.513Z,9.28
2022-10-08T03:03:34.210Z,9.23
2022-10-08T03:06:10.513Z,9.22
2022-10-08T03:08:47.500Z,9.21
2022-10-08T03:11:20.040Z,9.20
2022-10-08T03:13:58.723Z,9.17
2022-10-08T03:16:38.925Z,9.15
2022-10-08T03:19:17.999Z,9.15
2022-10-08T03:21:55.199Z,9.16
2022-10-08T03:24:27.351Z,9.15
2022-10-08T03:27:00.621Z,9.14
2022-10-08T03:29:32.883Z,9.13
2022-10-08T03:32:04.964Z,9.11
2022-10-08T03:34:40.191Z,9.11
2022-10-08T03:37:14.632Z,9.12
2022-10-08T03:39:49.590Z,9.11
2022-10-08T03:42:21.633Z,9.10
2022-10-08T03:44:55.032Z,9.10
2022-10-08T03:47:27.170Z,9.11
2022-10-08T03:49:59.450Z,9.09
2022-10-08T03:52:32.943Z,9.07
2022-10-08T03:55:05.200Z,9.05
2022-10-08T03:57:37.448Z,9.03
2022-10-08T04:00:16.854Z,9.01
2022-10-08T04:02:52.510Z,9.02
2022-10-08T04:05:24.618Z,9.03
2022-10-08T04:07:56.820Z,9.03
2022-10-08T04:10:29.009Z,9.02
2022-10-08T04:13:01.122Z,9.04
2022-10-08T04:15:34.090Z,9.02
2022-10-08T04:18:07.480Z,9.02
2022-10-08T04:20:39.781Z,9.03
2022-10-08T04:23:14.602Z,9.01
2022-10-08T04:25:54.026Z,8.99
2022-10-08T04:28:26.638Z,8.97
2022-10-08T04:31:04.683Z,8.98
2022-10-08T04:33:40.409Z,8.98
2022-10-08T04:36:14.821Z,8.98
2022-10-08T04:38:52.363Z,8.97
2022-10-08T04:41:27.651Z,8.96
2022-10-08T04:44:03.071Z,8.93
2022-10-08T04:46:37.403Z,8.92
2022-10-08T04:49:11.525Z,8.90
2022-10-08T04:51:44.798Z,8.88
2022-10-08T04:54:18.526Z,8.86
2022-10-08T04:56:51.984Z,8.84
2022-10-08T04:59:25.590Z,8.84
2022-10-08T05:01:59.859Z,8.83
2022-10-08T05:04:35.753Z,8.85
2022-10-08T05:07:11.489Z,8.85
2022-10-08T05:09:45.298Z,8.84
2022-10-08T05:12:16.922Z,8.84
2022-10-08T05:14:49.987Z,8.81
2022-10-08T05:17:23.305Z,8.82
2022-10-08T05:19:57.090Z,8.82
2022-10-08T05:22:28.447Z,8.82
2022-10-08T05:25:03.071Z,8.78
2022-10-08T05:27:36.475Z,8.81
2022-10-08T05:30:12.041Z,8.86
2022-10-08T05:32:44.778Z,8.89
2022-10-08T05:35:17.350Z,8.92
2022-10-08T05:37:49.582Z,8.99
2022-10-08T05:40:22.405Z,9.12
2022-10-08T05:42:57.611Z,9.27
2022-10-08T05:45:29.996Z,9.43
2022-10-08T05:48:02.086Z,9.61
2022-10-08T05:50:37.442Z,9.81
2022-10-08T05:53:09.857Z,10.00
2022-10-08T05:55:41.810Z,10.20
2022-10-08T05:58:14.151Z,10.40
2022-10-08T06:00:46.302Z,10.59
2022-10-08T06:03:19.843Z,10.77
2022-10-08T06:05:52.502Z,10.97
2022-10-08T06:08:25.133Z,11.13
2022-10-08T06:10:58.212Z,11.34
2022-10-08T06:13:30.403Z,11.52
2022-10-08T06:16:05.121Z,11.72
2022-10-08T06:18:39.250Z,11.92
2022-10-08T06:21:16.640Z,12.14
2022-10-08T06:23:51.425Z,12.34
2022-10-08T06:26:27.343Z,12.41
2022-10-08T06:29:01.693Z,12.44
2022-10-08T06:31:34.044Z,12.57
2022-10-08T06:34:06.869Z,12.76
2022-10-08T06:36:39.342Z,13.00
2022-10-08T06:39:15.872Z,13.17
2022-10-08T06:41:48.370Z,13.38
2022-10-08T06:44:20.732Z,13.61
2022-10-08T06:46:52.896Z,13.82
2022-10-08T06:49:26.914Z,14.01
2022-10-08T06:51:59.033Z,14.19
2022-10-08T06:54:31.133Z,14.37
2022-10-08T06:57:03.294Z,14.53
2022-10-08T06:59:35.433Z,14.68
2022-10-08T07:02:08.015Z,14.81
2022-10-08T07:04:42.490Z,14.91
2022-10-08T07:07:21.622Z,15.00
2022-10-08T07:09:53.562Z,15.15
2022-10-08T07:12:25.700Z,15.32
2022-10-08T07:14:58.143Z,15.47
2022-10-08T07:17:31.682Z,15.59
2022-10-08T07:20:02.060Z,15.77
2022-10-08T07:22:35.620Z,15.88
2022-10-08T07:25:06.020Z,16.05
2022-10-08T07:27:41.518Z,16.14
2022-10-08T07:30:17.405Z,16.36
2022-10-08T07:32:50.307Z,16.53
2022-10-08T07:35:22.435Z,16.70
2022-10-08T07:37:56.544Z,16.85
2022-10-08T07:40:28.873Z,16.97
2022-10-08T07:43:02.687Z,17.07
2022-10-08T07:45:34.949Z,17.19
2022-10-08T07:48:07.322Z,17.28
2022-10-08T07:50:39.512Z,17.39
2022-10-08T07:53:11.700Z,17.48
2022-10-08T07:55:47.782Z,17.65
2022-10-08T07:58:20.562Z,17.78
2022-10-08T08:00:57.475Z,17.87
2022-10-08T08:03:30.457Z,17.85
2022-10-08T08:06:07.670Z,17.93
2022-10-08T08:08:42.091Z,17.94
2022-10-08T08:11:18.910Z,18.01
2022-10-08T08:13:55.000Z,18.03
2022-10-08T08:16:32.842Z,18.05
2022-10-08T08:19:05.539Z,18.10
2022-10-08T08:21:39.441Z,18.28
2022-10-08T08:24:16.890Z,18.39
2022-10-08T08:26:54.321Z,18.49
2022-10-08T08:29:29.172Z,18.45
2022-10-08T08:32:01.304Z,18.32
2022-10-08T08:34:33.351Z,18.22
2022-10-08T08:37:05.600Z,18.41
2022-10-08T08:39:37.900Z,18.20
2022-10-08T08:42:30.840Z,18.27
2022-10-08T08:45:22.754Z,18.48
2022-10-08T08:48:08.660Z,18.50
2022-10-08T08:50:48.624Z,18.65
2022-10-08T08:53:21.729Z,18.72
2022-10-08T08:56:00.132Z,18.95
2022-10-08T08:58:42.821Z,18.94
2022-10-08T09:01:26.845Z,18.82
2022-10-08T09:04:07.819Z,18.79
2022-10-08T09:06:42.732Z,19.07
2022-10-08T09:09:26.127Z,19.21
2022-10-08T09:11:59.211Z,18.96
2022-10-08T09:14:42.252Z,19.21
2022-10-08T09:17:19.223Z,19.38
2022-10-08T09:19:52.641Z,19.59
2022-10-08T09:22:28.053Z,19.74
2022-10-08T09:25:05.821Z,19.85
2022-10-08T09:27:55.371Z,19.99
2022-10-08T09:30:36.767Z,20.02
2022-10-08T09:33:24.719Z,20.03
2022-10-08T09:35:57.263Z,19.99
2022-10-08T09:38:31.911Z,20.14
2022-10-08T09:41:07.010Z,20.20
2022-10-08T09:43:39.771Z,20.21
2022-10-08T09:46:31.721Z,20.20
2022-10-08T09:49:27.664Z,20.01
2022-10-08T09:52:03.744Z,20.11
2022-10-08T09:54:43.382Z,20.17
2022-10-08T09:57:26.503Z,20.18
2022-10-08T10:00:02.223Z,20.08
2022-10-08T10:02:38.804Z,19.86
2022-10-08T10:05:24.307Z,20.02
2022-10-08T10:07:56.970Z,20.07
2022-10-08T10:10:33.327Z,20.11
2022-10-08T10:13:11.455Z,20.20
2022-10-08T10:15:50.495Z,20.40
2022-10-08T10:18:28.282Z,20.30
2022-10-08T10:21:04.622Z,20.40
2022-10-08T10:23:40.992Z,20.50
2022-10-08T10:26:19.812Z,20.61
2022-10-08T10:28:58.090Z,20.69
2022-10-08T10:31:38.865Z,20.74
2022-10-08T10:34:18.763Z,20.80
2022-10-08T10:36:54.182Z,20.93
2022-10-08T10:39:34.052Z,21.00
2022-10-08T10:42:18.559Z,20.88
2022-10-08T10:44:58.163Z,20.79
2022-10-08T10:47:34.454Z,20.96
2022-10-08T10:50:08.032Z,21.06
2022-10-08T10:52:53.400Z,21.19
2022-10-08T10:55:33.499Z,21.30
2022-10-08T10:58:24.113Z,21.43
2022-10-08T11:01:07.067Z,21.52
2022-10-08T11:03:47.391Z,21.53
2022-10-08T11:06:44.442Z,21.54
2022-10-08T11:09:29.410Z,21.35
2022-10-08T11:12:06.530Z,21.26
2022-10-08T11:14:55.574Z,21.43
2022-10-08T11:17:41.680Z,21.58
2022-10-08T11:20:39.914Z,21.71
2022-10-08T11:23:20.532Z,21.71
2022-10-08T11:29:04.433Z,21.80
2022-10-08T11:31:44.435Z,21.94
2022-10-08T11:34:25.696Z,21.96
2022-10-08T11:37:08.624Z,21.93
2022-10-08T11:39:59.263Z,22.09
2022-10-08T11:42:43.933Z,22.16
2022-10-08T11:45:33.839Z,22.13
2022-10-08T11:48:33.070Z,22.11
2022-10-08T11:51:31.251Z,21.92
2022-10-08T11:54:12.852Z,21.91
2022-10-08T11:56:47.582Z,21.80
2022-10-08T11:59:39.595Z,21.56
2022-10-08T12:02:29.415Z,21.45
2022-10-08T12:05:18.316Z,21.38
2022-10-08T12:07:56.580Z,21.36
2022-10-08T12:10:39.999Z,21.28
2022-10-08T12:13:32.191Z,21.30
2022-10-08T12:16:08.071Z,21.45
2022-10-08T12:18:48.921Z,21.46
2022-10-08T12:21:52.782Z,21.32
2022-10-08T12:24:55.253Z,21.32
2022-10-08T12:27:43.481Z,21.17
2022-10-08T12:30:17.412Z,21.16
2022-10-08T12:32:59.562Z,21.25
2022-10-08T12:35:36.358Z,21.24
2022-10-08T12:38:25.607Z,21.21
2022-10-08T12:41:12.463Z,21.22
2022-10-08T12:43:53.312Z,21.19
2022-10-08T12:46:38.445Z,20.98
2022-10-08T12:49:20.533Z,20.99
2022-10-08T12:52:02.038Z,21.02
2022-10-08T12:54:35.152Z,21.08
2022-10-08T12:57:09.641Z,21.22
2022-10-08T12:59:43.823Z,21.28
2022-10-08T13:02:37.340Z,21.33
2022-10-08T13:05:11.801Z,21.32
2022-10-08T13:07:45.340Z,21.25
2022-10-08T13:10:30.991Z,21.16
2022-10-08T13:13:10.392Z,21.08
2022-10-08T13:15:43.662Z,20.90
2022-10-08T13:18:24.168Z,20.90
2022-10-08T13:21:04.790Z,20.95
2022-10-08T13:23:43.893Z,20.96
2022-10-08T13:26:45.011Z,20.97
2022-10-08T13:29:36.563Z,20.91
2022-10-08T13:32:21.293Z,20.88
2022-10-08T13:34:56.360Z,20.90
2022-10-08T13:37:38.248Z,20.90
2022-10-08T13:40:28.154Z,20.93
2022-10-08T13:43:01.127Z,20.86
2022-10-08T13:45:37.402Z,20.87
2022-10-08T13:48:13.815Z,20.81
2022-10-08T13:50:51.729Z,20.80
2022-10-08T13:53:26.932Z,20.76
2022-10-08T13:55:59.342Z,20.68
2022-10-08T13:58:33.055Z,20.58
2022-10-08T14:01:05.154Z,20.54
2022-10-08T14:03:37.270Z,20.51
2022-10-08T14:06:10.200Z,20.51
2022-10-08T14:08:44.672Z,20.44
2022-10-08T14:11:19.571Z,20.36
2022-10-08T14:13:52.030Z,20.18
2022-10-08T14:16:24.391Z,20.17
2022-10-08T14:18:59.414Z,20.12
2022-10-08T14:21:31.690Z,20.09
2022-10-08T14:24:05.231Z,20.05
2022-10-08T14:26:37.331Z,20.04
2022-10-08T14:29:09.772Z,20.03
2022-10-08T14:31:42.131Z,19.95
2022-10-08T14:34:14.372Z,19.99
2022-10-08T14:36:46.817Z,20.01
2022-10-08T14:39:19.515Z,20.02
2022-10-08T14:41:51.756Z,20.04
2022-10-08T14:44:24.299Z,20.00
2022-10-08T14:46:57.552Z,19.99
2022-10-08T14:49:32.919Z,20.02
2022-10-08T14:52:04.929Z,19.94
2022-10-08T14:54:37.041Z,19.86
2022-10-08T14:57:09.062Z,19.83
2022-10-08T14:59:41.566Z,19.78
2022-10-08T15:02:14.851Z,19.74
2022-10-08T15:04:47.570Z,19.68
2022-10-08T15:07:19.696Z,19.60
2022-10-08T15:09:51.993Z,19.49
2022-10-08T15:12:24.090Z,19.38
2022-10-08T15:14:56.832Z,19.30
2022-10-08T15:17:32.080Z,19.17
2022-10-08T15:20:05.253Z,19.12
2022-10-08T15:22:37.520Z,19.04
2022-10-08T15:25:10.822Z,19.00
2022-10-08T15:27:44.339Z,18.94
2022-10-08T15:30:18.442Z,18.88
2022-10-08T15:32:51.450Z,18.81
2022-10-08T15:35:26.700Z,18.77
2022-10-08T15:38:01.430Z,18.70
2022-10-08T15:40:36.533Z,18.61
2022-10-08T15:43:09.630Z,18.52
2022-10-08T15:45:46.535Z,18.44
2022-10-08T15:48:18.774Z,18.32
2022-10-08T15:51:01.264Z,18.29
2022-10-08T15:53:38.074Z,18.25
2022-10-08T15:56:12.141Z,18.21
2022-10-08T15:58:51.393Z,18.10
2022-10-08T16:01:25.822Z,18.02
2022-10-08T16:03:58.970Z,17.94
2022-10-08T16:06:35.781Z,17.89
2022-10-08T16:09:08.342Z,17.82
2022-10-08T16:11:42.532Z,17.80
2022-10-08T16:14:18.267Z,17.74
2022-10-08T16:16:51.168Z,17.72
2022-10-08T16:19:27.854Z,17.67
2022-10-08T16:22:01.450Z,17.60
2022-10-08T16:24:33.814Z,17.53
2022-10-08T16:27:06.314Z,17.47
2022-10-08T16:29:38.332Z,17.40
2022-10-08T16:32:11.396Z,17.35
2022-10-08T16:34:53.289Z,17.30
2022-10-08T16:37:25.982Z,17.23
2022-10-08T16:40:04.071Z,17.15
2022-10-08T16:42:36.436Z,17.11
2022-10-08T16:45:13.866Z,17.06
2022-10-08T16:47:47.861Z,17.00
2022-10-08T16:50:20.591Z,16.94
2022-10-08T16:52:52.762Z,16.84
2022-10-08T16:55:24.959Z,16.78
2022-10-08T16:58:00.421Z,16.71
2022-10-08T17:00:37.453Z,16.62
2022-10-08T17:03:09.642Z,16.53
2022-10-08T17:05:45.636Z,16.47
2022-10-08T17:08:18.050Z,16.43
2022-10-08T17:10:50.351Z,16.36
2022-10-08T17:13:22.700Z,16.32
2022-10-08T17:16:03.324Z,16.29
2022-10-08T17:18:39.063Z,16.25
2022-10-08T17:21:14.987Z,16.23
2022-10-08T17:23:47.612Z,16.20
2022-10-08T17:26:21.763Z,16.17
2022-10-08T17:28:55.516Z,16.15
2022-10-08T17:31:31.955Z,16.14
2022-10-08T17:34:05.223Z,16.09
2022-10-08T17:36:39.661Z,16.03
2022-10-08T17:39:16.849Z,15.99
2022-10-08T17:41:48.929Z,15.94
2022-10-08T17:44:21.700Z,15.91
2022-10-08T17:46:53.631Z,15.88
2022-10-08T17:49:26.352Z,15.84
2022-10-08T17:51:58.601Z,15.82
2022-10-08T17:54:32.810Z,15.78
2022-10-08T17:57:05.142Z,15.73
2022-10-08T17:59:39.423Z,15.67
2022-10-08T18:02:15.342Z,15.64
2022-10-08T18:04:47.460Z,15.62
2022-10-08T18:07:19.948Z,15.60
2022-10-08T18:09:52.008Z,15.57
2022-10-08T18:12:24.222Z,15.55
2022-10-08T18:14:59.110Z,15.51
2022-10-08T18:17:33.442Z,15.49
2022-10-08T18:20:11.423Z,15.47
2022-10-08T18:22:45.895Z,15.44
2022-10-08T18:25:18.992Z,15.39
2022-10-08T18:27:53.420Z,15.37
2022-10-08T18:30:27.890Z,15.34
2022-10-08T18:33:00.497Z,15.31
2022-10-08T18:35:33.217Z,15.31
2022-10-08T18:38:07.524Z,15.29
2022-10-08T18:40:40.009Z,15.25
2022-10-08T18:43:14.602Z,15.24
2022-10-08T18:45:50.093Z,15.21
2022-10-08T18:48:28.992Z,15.17
2022-10-08T18:51:12.100Z,15.19
2022-10-08T18:53:46.348Z,15.15
2022-10-08T18:56:23.359Z,15.17
2022-10-08T18:58:57.939Z,15.17
2022-10-08T19:01:40.772Z,15.16
2022-10-08T19:04:21.431Z,15.16
2022-10-08T19:06:55.663Z,15.13
2022-10-08T19:09:36.422Z,15.12
2022-10-08T19:12:10.059Z,15.07
2022-10-08T19:14:43.364Z,15.03
2022-10-08T19:17:22.800Z,14.99
2022-10-08T19:19:54.792Z,14.96
2022-10-08T19:22:26.941Z,14.91
2022-10-08T19:24:59.476Z,14.90
2022-10-08T19:27:31.524Z,14.84
2022-10-08T19:30:03.982Z,14.83
2022-10-08T19:32:36.030Z,14.80
2022-10-08T19:35:10.492Z,14.79
2022-10-08T19:37:43.368Z,14.74
2022-10-08T19:40:26.920Z,14.68
2022-10-08T19:42:58.850Z,14.65
2022-10-08T19:45:30.998Z,14.63
2022-10-08T19:48:03.122Z,14.58
2022-10-08T19:50:36.761Z,14.55
2022-10-08T19:53:08.883Z,14.53
2022-10-08T19:55:41.160Z,14.50
2022-10-08T19:58:15.144Z,14.45
2022-10-08T20:00:48.183Z,14.42
2022-10-08T20:03:20.258Z,14.39
2022-10-08T20:05:53.081Z,14.34
2022-10-08T20:08:26.410Z,14.34
2022-10-08T20:11:03.230Z,14.31
2022-10-08T20:13:36.102Z,14.28
2022-10-08T20:16:10.069Z,14.26
2022-10-08T20:18:42.473Z,14.24
2022-10-08T20:21:15.620Z,14.23
2022-10-08T20:23:48.811Z,14.21
2022-10-08T20:26:26.581Z,14.15
2022-10-08T20:29:02.204Z,14.14
2022-10-08T20:31:36.384Z,14.10
2022-10-08T20:34:13.082Z,14.05
2022-10-08T20:36:46.809Z,14.03
2022-10-08T20:39:21.244Z,14.02
2022-10-08T20:41:53.941Z,14.02
2022-10-08T20:44:26.542Z,14.04
2022-10-08T20:47:00.747Z,14.04
2022-10-08T20:49:36.430Z,14.05
2022-10-08T20:52:08.730Z,14.04
2022-10-08T20:54:41.547Z,14.05
2022-10-08T20:57:15.183Z,14.04
2022-10-08T20:59:47.563Z,14.03
2022-10-08T21:02:22.824Z,14.04
2022-10-08T21:04:58.782Z,14.04
2022-10-08T21:07:30.691Z,14.03
2022-10-08T21:10:02.904Z,14.02
2022-10-08T21:12:35.492Z,14.02
2022-10-08T21:15:10.777Z,14.03
2022-10-08T21:17:42.785Z,14.00
2022-10-08T21:20:15.164Z,13.97
2022-10-08T21:22:47.545Z,13.97
2022-10-08T21:25:19.983Z,13.97
2022-10-08T21:27:52.058Z,13.97
2022-10-08T21:30:24.333Z,13.95
2022-10-08T21:32:56.987Z,13.91
2022-10-08T21:35:29.270Z,13.88
2022-10-08T21:38:01.305Z,13.83
2022-10-08T21:40:33.383Z,13.82
2022-10-08T21:43:05.370Z,13.82
2022-10-08T21:45:37.685Z,13.80
2022-10-08T21:48:12.003Z,13.78
2022-10-08T21:50:55.900Z,13.76
2022-10-08T21:53:29.012Z,13.79
2022-10-08T21:56:03.831Z,13.77
2022-10-08T21:58:39.828Z,13.78
2022-10-08T22:01:22.621Z,13.74
2022-10-08T22:03:58.342Z,13.74
2022-10-08T22:06:32.410Z,13.76
2022-10-08T22:09:07.277Z,13.77
2022-10-08T22:11:39.628Z,13.78
2022-10-08T22:14:11.852Z,13.78
2022-10-08T22:16:45.996Z,13.77
2022-10-08T22:19:19.000Z,13.77
2022-10-08T22:21:51.508Z,13.76
2022-10-08T22:24:23.469Z,13.74
2022-10-08T22:26:56.015Z,13.76
2022-10-08T22:29:28.090Z,13.75
2022-10-08T22:32:00.325Z,13.72
2022-10-08T22:34:32.472Z,13.72
2022-10-08T22:37:04.533Z,13.71
2022-10-08T22:39:36.452Z,13.70
2022-10-08T22:42:08.812Z,13.67
2022-10-08T22:44:40.661Z,13.69
2022-10-08T22:47:15.889Z,13.66
2022-10-08T22:49:47.902Z,13.63
2022-10-08T22:52:21.493Z,13.62
2022-10-08T22:54:54.294Z,13.59
2022-10-08T22:57:26.550Z,13.58
2022-10-08T22:59:58.753Z,13.57
2022-10-08T23:02:30.873Z,13.53
2022-10-08T23:05:03.075Z,13.54
2022-10-08T23:07:35.212Z,13.49
2022-10-08T23:10:10.173Z,13.44
2022-10-08T23:12:42.252Z,13.44
2022-10-08T23:15:17.120Z,13.40
2022-10-08T23:17:49.182Z,13.35
2022-10-08T23:20:21.534Z,13.35
2022-10-08T23:22:53.791Z,13.33
2022-10-08T23:25:26.432Z,13.31
2022-10-08T23:27:58.840Z,13.31
2022-10-08T23:30:42.949Z,13.23
2022-10-08T23:33:15.851Z,13.18
2022-10-08T23:35:54.861Z,13.17
2022-10-08T23:38:30.026Z,13.10
2022-10-08T23:41:04.682Z,13.12
2022-10-08T23:43:39.640Z,13.11
2022-10-08T23:46:13.782Z,13.09
2022-10-08T23:48:47.159Z,13.03
2022-10-08T23:51:21.171Z,12.98
2022-10-08T23:53:56.240Z,12.95
2022-10-08T23:56:28.540Z,12.92
2022-10-08T23:59:00.949Z,12.87
